• Join FlightAware (Why Join?)
  • Login
  • US Flag 
01:55AM EST


 

Airport Tracker/Info


-or-


 

Live Flight TrackerFlight Track Log ✈ N465TP ✈ 30-Aug-2013 ✈ KCOD - KTPH

Flight Track Log - Related Links

Times and Time Zones

All times are in EDT time to prevent confusion due to time zone crossing. See the N465TP flight status page for this flight to view local times or setup timezone preferences in your user account.

Time Position Orientation Groundspeed Altitude Reporting Facility
EDT Latitude Longitude Course Direction KTS MPH feet Rate Location/Type
12:07PM 44.4169 -109.2464 237° Southwest 146 168 10,400  Level Salt Lake Center
12:08PM 44.3944 -109.2942 237° Southwest 146 168 11,500 1,140 Climbing Salt Lake Center
12:09PM 44.3686 -109.3414 233° Southwest 151 174 12,800 1,200 Climbing Salt Lake Center
12:10PM 44.3383 -109.3864 227° Southwest 156 180 14,100 1,200 Climbing Salt Lake Center
12:11PM 44.3031 -109.4397 227° Southwest 156 180 15,400 1,080 Climbing Salt Lake Center
12:12PM 44.2739 -109.4850 228° Southwest 156 180 16,400 960 Climbing Salt Lake Center
12:13PM 44.2464 -109.5278 228° Southwest 156 180 17,500 960 Climbing Salt Lake Center
12:14PM 44.2125 -109.5769 226° Southwest 156 180 18,400 900 Climbing Salt Lake Center
12:15PM 44.1836 -109.6222 228° Southwest 161 185 19,400 960 Climbing Salt Lake Center
12:16PM 44.1481 -109.6756 227° Southwest 166 191 20,500 960 Climbing Salt Lake Center
12:17PM 44.1175 -109.7214 227° Southwest 167 192 21,500 960 Climbing Salt Lake Center
12:18PM 44.0825 -109.7747 228° Southwest 167 192 22,600 900 Climbing Salt Lake Center
12:19PM 44.0536 -109.8194 228° Southwest 165 190 23,400 840 Climbing Salt Lake Center
12:20PM 44.0172 -109.8756 228° Southwest 173 199 24,400 900 Climbing Salt Lake Center
12:21PM 43.9856 -109.9239 228° Southwest 176 203 25,300 780 Climbing Salt Lake Center
12:22PM 43.9539 -109.9719 228° Southwest 176 203 26,100 900 Climbing Salt Lake Center
12:23PM 43.9167 -110.0272 227° Southwest 176 203 27,200 780 Climbing Salt Lake Center
12:24PM 43.8853 -110.0761 228° Southwest 177 204 27,800 360 Climbing Salt Lake Center
12:25PM 43.8428 -110.1389 227° Southwest 197 227 28,000 60 Climbing Salt Lake Center
12:26PM 43.8042 -110.1975 228° Southwest 211 243 28,000  Level Salt Lake Center
12:27PM 43.7592 -110.2644 227° Southwest 213 245 28,000  Level Salt Lake Center
12:28PM 43.7203 -110.3228 227° Southwest 214 246 28,000 -60 Level Salt Lake Center
12:29PM 43.6742 -110.3894 226° Southwest 216 249 27,900  Descending Salt Lake Center
12:31PM 43.6353 -110.4461 227° Southwest 214 246 28,000  Climbing Salt Lake Center
12:32PM 43.5903 -110.5133 227° Southwest 213 245 28,000  Level Salt Lake Center
12:33PM 43.5506 -110.5700 226° Southwest 213 245 28,000  Level Salt Lake Center
12:34PM 43.5056 -110.6378 228° Southwest 214 246 28,000  Level Salt Lake Center
12:35PM 43.4667 -110.6950 227° Southwest 214 246 28,000  Level Salt Lake Center
12:36PM 43.4289 -110.7519 228° Southwest 210 242 28,000  Level Salt Lake Center
12:37PM 43.3828 -110.8186 226° Southwest 214 246 28,000  Level Salt Lake Center
12:38PM 43.3450 -110.8742 227° Southwest 209 241 28,000  Level Salt Lake Center
12:39PM 43.3000 -110.9392 226° Southwest 209 241 28,000  Level Salt Lake Center
12:40PM 43.2606 -110.9972 227° Southwest 213 245 28,000  Level Salt Lake Center
12:41PM 43.2147 -111.0636 227° Southwest 214 246 28,000 -60 Level Salt Lake Center
12:42PM 43.1767 -111.1203 227° Southwest 211 243 27,900 -60 Descending Salt Lake Center
12:43PM 43.1306 -111.1858 226° Southwest 212 244 27,900  Level Salt Lake Center
12:44PM 43.0919 -111.2422 227° Southwest 212 244 28,000  Climbing Salt Lake Center
12:45PM 43.0461 -111.3075 226° Southwest 213 245 27,900  Descending Salt Lake Center
12:46PM 43.0064 -111.3639 226° Southwest 215 247 28,000  Climbing Salt Lake Center
12:47PM 42.9681 -111.4192 227° Southwest 211 243 28,000  Level Salt Lake Center
12:48PM 42.9219 -111.4864 227° Southwest 215 247 28,000  Level Salt Lake Center
12:49PM 42.8819 -111.5417 225° Southwest 214 246 28,000  Level Salt Lake Center
12:50PM 42.8361 -111.6078 227° Southwest 215 247 28,000  Level Salt Lake Center
12:51PM 42.7964 -111.6636 226° Southwest 213 245 28,000  Level Salt Lake Center
12:52PM 42.7500 -111.7286 226° Southwest 214 246 28,000  Level Salt Lake Center
12:53PM 42.7106 -111.7850 226° Southwest 215 247 28,000  Level Salt Lake Center
12:54PM 42.6617 -111.8528 226° Southwest 217 250 28,000  Level Salt Lake Center
12:55PM 42.6208 -111.9106 226° Southwest 214 246 28,000  Level Salt Lake Center
12:56PM 42.5794 -111.9697 226° Southwest 216 249 28,000  Level Salt Lake Center
12:57PM 42.5375 -112.0283 226° Southwest 217 250 28,000  Level Salt Lake Center
12:58PM 42.4950 -112.0858 225° Southwest 217 250 28,000  Level Salt Lake Center
12:59PM 42.4533 -112.1458 227° Southwest 217 250 28,000  Level Salt Lake Center
01:01PM 42.4028 -112.2172 226° Southwest 219 252 28,000  Level Salt Lake Center
01:02PM 42.3600 -112.2736 224° Southwest 217 250 28,000  Level Salt Lake Center
01:03PM 42.3178 -112.3336 226° Southwest 219 252 28,000  Level Salt Lake Center
01:04PM 42.2747 -112.3922 225° Southwest 221 254 28,000  Level Salt Lake Center
01:05PM 42.2325 -112.4517 226° Southwest 219 252 28,000  Level Salt Lake Center
01:06PM 42.1897 -112.5097 225° Southwest 220 253 28,000  Level Salt Lake Center
01:07PM 42.1389 -112.5808 226° Southwest 219 252 28,000  Level Salt Lake Center
01:08PM 42.0964 -112.6392 226° Southwest 218 251 28,000  Level Salt Lake Center
01:09PM 42.0531 -112.6978 225° Southwest 221 254 28,000  Level Salt Lake Center
01:10PM 42.0094 -112.7561 225° Southwest 221 254 28,000  Level Salt Lake Center
01:11PM 41.9672 -112.8150 226° Southwest 220 253 28,000  Level Salt Lake Center
01:12PM 41.9158 -112.8850 225° Southwest 220 253 28,000  Level Salt Lake Center
01:13PM 41.8736 -112.9444 226° Southwest 220 253 28,000  Level Salt Lake Center
01:14PM 41.8297 -113.0019 224° Southwest 221 254 28,000  Level Salt Lake Center
01:15PM 41.7864 -113.0600 225° Southwest 222 255 28,000  Level Salt Lake Center
01:16PM 41.7431 -113.1181 225° Southwest 221 254 28,000  Level Salt Lake Center
01:17PM 41.6997 -113.1772 226° Southwest 221 254 28,000  Level Salt Lake Center
01:18PM 41.6475 -113.2494 226° Southwest 224 258 28,000  Level Salt Lake Center
01:19PM 41.6028 -113.3064 224° Southwest 223 257 28,000  Level Salt Lake Center
01:20PM 41.5589 -113.3658 225° Southwest 225 259 28,000  Level Salt Lake Center
01:21PM 41.5150 -113.4236 225° Southwest 223 257 28,000  Level Salt Lake Center
01:22PM 41.4711 -113.4828 225° Southwest 224 258 28,000  Level Salt Lake Center
01:23PM 41.4186 -113.5539 225° Southwest 225 259 28,000  Level Salt Lake Center
01:24PM 41.3753 -113.6119 225° Southwest 223 257 28,000  Level Salt Lake Center
01:25PM 41.3300 -113.6697 224° Southwest 225 259 28,000  Level Salt Lake Center
01:26PM 41.2864 -113.7286 225° Southwest 224 258 28,000  Level Salt Lake Center
01:27PM 41.2414 -113.7881 225° Southwest 226 260 28,000  Level Salt Lake Center
01:28PM 41.1956 -113.8467 224° Southwest 228 262 28,000  Level Salt Lake Center
01:29PM 41.1431 -113.9172 225° Southwest 226 260 28,000  Level Salt Lake Center
01:31PM 41.0978 -113.9764 225° Southwest 228 262 28,000  Level Salt Lake Center
01:32PM 41.0533 -114.0356 225° Southwest 227 261 28,000  Level Salt Lake Center
01:33PM 41.0081 -114.0942 224° Southwest 228 262 28,000  Level Salt Lake Center
01:34PM 40.9628 -114.1544 225° Southwest 230 265 28,000  Level Salt Lake Center
01:35PM 40.9167 -114.2139 224° Southwest 231 266 28,000  Level Salt Lake Center
01:36PM 40.8631 -114.2844 225° Southwest 229 264 28,000  Level Salt Lake Center
01:37PM 40.8178 -114.3439 225° Southwest 230 265 28,000  Level Salt Lake Center
01:38PM 40.7733 -114.4028 225° Southwest 228 262 28,000  Level Salt Lake Center
01:39PM 40.7278 -114.4619 225° Southwest 229 264 28,000  Level Salt Lake Center
01:40PM 40.6822 -114.5200 224° Southwest 228 262 28,000  Level Salt Lake Center
01:41PM 40.6372 -114.5794 225° Southwest 230 265 28,000  Level Salt Lake Center
01:42PM 40.5817 -114.6500 224° Southwest 231 266 28,000  Level Salt Lake Center
01:43PM 40.5353 -114.7083 224° Southwest 231 266 28,000  Level Salt Lake Center
01:44PM 40.4894 -114.7664 224° Southwest 229 264 28,000  Level Salt Lake Center
01:45PM 40.4406 -114.8250 222° Southwest 237 273 28,000  Level Salt Lake Center
01:46PM 40.3892 -114.8906 224° Southwest 234 269 28,000  Level Salt Lake Center
01:47PM 40.3433 -114.9428 221° Southwest 229 264 28,000  Level Salt Lake Center
01:48PM 40.2828 -114.9992 215° Southwest 235 270 28,000  Level Salt Lake Center
01:49PM 40.2328 -115.0478 217° Southwest 236 272 28,000  Level Salt Lake Center
01:50PM 40.1836 -115.0969 217° Southwest 233 268 28,000  Level Salt Lake Center
01:51PM 40.1233 -115.1539 216° Southwest 236 272 28,000  Level Salt Lake Center
01:52PM 40.0658 -115.2111 217° Southwest 234 269 28,000  Level Salt Lake Center
01:53PM 40.0147 -115.2600 216° Southwest 236 272 28,000  Level Salt Lake Center
01:54PM 39.9561 -115.3161 216° Southwest 234 269 28,000  Level Salt Lake Center
01:55PM 39.9058 -115.3650 217° Southwest 234 269 28,000  Level Salt Lake Center
01:56PM 39.8544 -115.4156 217° Southwest 238 274 28,000  Level Salt Lake Center
01:57PM 39.7919 -115.4739 216° Southwest 244 281 28,000  Level Salt Lake Center
01:58PM 39.7403 -115.5236 217° Southwest 241 277 28,000  Level Salt Lake Center
01:59PM 39.6786 -115.5814 216° Southwest 243 280 28,000  Level Salt Lake Center
02:00PM 39.6283 -115.6303 217° Southwest 238 274 28,000  Level Salt Lake Center
02:02PM 39.5667 -115.6897 217° Southwest 244 281 28,000  Level Salt Lake Center
02:03PM 39.5150 -115.7397 217° Southwest 243 280 28,000  Level Salt Lake Center
02:04PM 39.4528 -115.7983 216° Southwest 246 283 28,000  Level Salt Lake Center
02:05PM 39.4003 -115.8472 216° Southwest 243 280 28,000  Level Salt Lake Center
02:06PM 39.3392 -115.9053 216° Southwest 243 280 28,000  Level Salt Lake Center
02:07PM 39.2872 -115.9542 216° Southwest 241 277 28,000  Level Salt Lake Center
02:08PM 39.2356 -116.0033 216° Southwest 241 277 28,000  Level Salt Lake Center
02:09PM 39.1742 -116.0617 216° Southwest 244 281 28,000  Level Salt Lake Center
02:10PM 39.1225 -116.1092 216° Southwest 241 277 28,000  Level Salt Lake Center
02:11PM 39.0689 -116.1597 216° Southwest 244 281 28,000  Level Salt Lake Center
02:12PM 39.0025 -116.2211 216° Southwest 244 281 28,000 -180 Level Salt Lake Center
02:13PM 38.9475 -116.2731 216° Southwest 245 282 27,700 -420 Descending Salt Lake Center
02:14PM 38.8889 -116.3261 215° Southwest 254 292 27,200 -540 Descending Salt Lake Center
02:15PM 38.8294 -116.3814 216° Southwest 262 302 26,600 -660 Descending Salt Lake Center
02:16PM 38.7689 -116.4394 217° Southwest 271 312 25,900 -720 Descending Salt Lake Center
02:17PM 38.7067 -116.4956 215° Southwest 273 314 25,200 -1,140 Descending Salt Lake Center
02:18PM 38.6306 -116.5561 212° Southwest 269 310 23,600 -1,500 Descending Salt Lake Center
02:19PM 38.5622 -116.5906 202° Southwest 265 305 22,100 -1,200 Descending Salt Lake Center
02:20PM 38.4978 -116.6272 204° Southwest 256 295 21,200 -540 Descending Salt Lake Center
02:21PM 38.4372 -116.6706 209° Southwest 249 287 21,000 -120 Descending Salt Lake Center
02:22PM 38.3861 -116.7275 221° Southwest 245 282 21,000 -360 Level Salt Lake Center
02:23PM 38.3642 -116.8014 249° West 251 289 20,300 -1,560 Descending Salt Lake Center
02:24PM 38.3753 -116.9061 278° West 249 287 17,800 -2,220 Descending Salt Lake Center
02:25PM 38.3492 -116.9742 244° Southwest 234 269 15,800 -1,980 Descending Salt Lake Center
02:28PM 38.2481 -117.0137 215° Southwest  Level Estimated
02:35PM 38.0602 -117.0868 218° Southwest  Level Estimated
02:36PM 38.0602 -117.0868 218° Southwest  Level Estimated
02:37PM 38.0602 -117.0868 218° Southwest  Level Estimated
02:38PM 38.0602 -117.0868 218° Southwest  Level Estimated
02:39PM 38.0602 -117.0868 218° Southwest  Level Estimated
02:40PM 38.0602 -117.0868 218° Southwest  Level Estimated
02:41PM 38.0602 -117.0868 218° Southwest  Level Estimated
02:42PM 38.0602 -117.0868 218° Southwest  Level Estimated
02:43PM 38.0602 -117.0868 218° Southwest  Level Estimated
02:44PM 38.0602 -117.0868 218° Southwest  Level Estimated
02:45PM 38.0602 -117.0868 218° Southwest  Level Estimated
02:46PM 38.0602 -117.0868 218° Southwest  Level Estimated
02:47PM 38.0602 -117.0868 218° Southwest  Level Estimated